Time;durP1;ratioP1;P1;durP2;ratioP2;P2;SDS_P1;SDS_P2;PMS_P1;PMS_P2;Temp;Humidity;BMP_temperature;BMP_pressure;BME280_temperature;BME280_humidity;BME280_pressure;Samples;Min_cycle;Max_cycle;Signal;HPM_P1;HPM_P2
2023/04/23 00:01:01;;;;;;;14.93;6.40;;;9.30;99.90;;;;;;5038884;28;20042;-78
2023/04/23 00:03:29;;;;;;;13.48;6.22;;;9.30;99.90;;;;;;5008234;28;20113;-79
2023/04/23 00:05:56;;;;;;;15.18;6.45;;;9.20;99.90;;;;;;5035299;28;20112;-79
2023/04/23 00:08:22;;;;;;;15.40;6.40;;;9.20;99.90;;;;;;5003563;28;20121;-79
2023/04/23 00:10:48;;;;;;;12.85;5.35;;;9.30;99.90;;;;;;5003629;28;20093;-78
2023/04/23 00:13:14;;;;;;;16.10;5.95;;;9.20;99.90;;;;;;5003362;28;20525;-78
2023/04/23 00:15:40;;;;;;;15.13;6.35;;;9.20;99.90;;;;;;5008801;28;20042;-79
2023/04/23 00:18:06;;;;;;;15.63;6.15;;;9.20;99.90;;;;;;5038927;28;20065;-78
2023/04/23 00:20:33;;;;;;;14.65;5.82;;;9.20;99.90;;;;;;5007975;28;20042;-79
2023/04/23 00:22:58;;;;;;;15.80;5.85;;;9.20;99.90;;;;;;5020626;28;20026;-78
2023/04/23 00:25:24;;;;;;;12.50;6.03;;;9.20;99.90;;;;;;5007581;28;20535;-79
2023/04/23 00:27:49;;;;;;;15.90;5.85;;;9.10;99.90;;;;;;5000484;28;20042;-78
2023/04/23 00:30:17;;;;;;;15.57;6.05;;;9.10;99.90;;;;;;5006973;28;20029;-79
2023/04/23 00:32:43;;;;;;;13.95;6.13;;;9.20;99.90;;;;;;5005894;28;20456;-78
2023/04/23 00:35:09;;;;;;;14.90;5.95;;;9.20;99.90;;;;;;5005610;28;20040;-78
2023/04/23 00:37:35;;;;;;;17.13;5.97;;;9.10;99.90;;;;;;5008457;28;20100;-79
2023/04/23 00:40:01;;;;;;;18.50;6.80;;;9.10;99.90;;;;;;5006146;28;20403;-79
2023/04/23 00:42:27;;;;;;;13.75;6.18;;;9.10;99.90;;;;;;5005203;28;20069;-79
2023/04/23 00:44:54;;;;;;;13.23;6.20;;;9.10;99.90;;;;;;5005643;28;21167;-79
2023/04/23 00:47:21;;;;;;;15.73;5.72;;;9.00;99.90;;;;;;5005819;28;20038;-79
2023/04/23 00:49:49;;;;;;;16.38;6.65;;;9.10;99.90;;;;;;5008604;28;20041;-79
2023/04/23 00:52:15;;;;;;;18.05;7.28;;;9.10;99.90;;;;;;5037558;28;20065;-79
2023/04/23 00:54:40;;;;;;;16.85;6.03;;;9.00;99.90;;;;;;5036602;28;20045;-79
2023/04/23 00:57:06;;;;;;;13.60;5.80;;;9.00;99.90;;;;;;5005349;28;20034;-78
2023/04/23 00:59:33;;;;;;;16.75;6.88;;;9.00;99.90;;;;;;5007810;28;20052;-79
2023/04/23 01:01:59;;;;;;;20.50;6.38;;;9.00;99.90;;;;;;5009342;28;20034;-79
2023/04/23 01:04:28;;;;;;;15.27;6.10;;;9.00;99.90;;;;;;5004183;28;20030;-78
2023/04/23 01:06:55;;;;;;;14.68;6.40;;;9.00;99.90;;;;;;5019407;28;20052;-79
2023/04/23 01:09:21;;;;;;;14.27;5.80;;;9.00;99.90;;;;;;5002498;28;20064;-78
2023/04/23 01:11:50;;;;;;;18.02;5.72;;;9.00;99.90;;;;;;5005563;28;20070;-79
2023/04/23 01:14:16;;;;;;;15.27;5.63;;;9.00;99.90;;;;;;5004890;28;20061;-79
2023/04/23 01:16:41;;;;;;;14.25;6.13;;;9.00;99.90;;;;;;5007937;28;20046;-79
2023/04/23 01:19:09;;;;;;;15.80;6.03;;;9.00;99.90;;;;;;5006218;28;20116;-79
2023/04/23 01:21:36;;;;;;;14.35;6.30;;;8.90;99.90;;;;;;5003775;28;20077;-79
2023/04/23 01:24:06;;;;;;;16.00;6.65;;;8.90;99.90;;;;;;4996447;28;20050;-79
2023/04/23 01:26:33;;;;;;;12.10;5.55;;;8.90;99.90;;;;;;5035133;28;20056;-79
2023/04/23 01:29:00;;;;;;;15.95;5.78;;;8.90;99.90;;;;;;5005788;28;20507;-79
2023/04/23 01:31:26;;;;;;;16.98;6.53;;;8.80;99.90;;;;;;5005359;28;20077;-78
2023/04/23 01:33:54;;;;;;;19.35;7.32;;;8.70;99.90;;;;;;5005687;28;20124;-79
2023/04/23 01:36:22;;;;;;;17.92;7.07;;;8.80;99.90;;;;;;5004628;28;20549;-79
2023/04/23 01:38:48;;;;;;;18.88;7.35;;;8.80;99.90;;;;;;5007022;28;20165;-79
2023/04/23 01:41:14;;;;;;;18.40;6.60;;;8.80;99.90;;;;;;5005108;28;20443;-78
2023/04/23 01:43:44;;;;;;;19.52;7.95;;;8.80;99.90;;;;;;5006622;28;20041;-79
2023/04/23 01:46:10;;;;;;;19.23;7.13;;;8.80;99.90;;;;;;5002552;28;20394;-79
2023/04/23 01:48:36;;;;;;;17.98;6.93;;;8.80;99.90;;;;;;5004108;28;20076;-79
2023/04/23 01:51:02;;;;;;;17.52;8.35;;;8.80;99.90;;;;;;5035759;28;20073;-79
2023/04/23 01:53:27;;;;;;;21.40;8.75;;;8.80;99.90;;;;;;5004113;28;20434;-79
2023/04/23 01:55:55;;;;;;;22.95;9.07;;;8.90;99.90;;;;;;5006649;28;20070;-79
2023/04/23 01:58:22;;;;;;;22.48;9.07;;;8.90;99.90;;;;;;5002765;28;20042;-79
2023/04/23 02:00:48;;;;;;;26.33;9.27;;;8.90;99.90;;;;;;5004479;28;20046;-79
2023/04/23 02:03:14;;;;;;;24.45;9.00;;;8.90;99.90;;;;;;5005458;28;20125;-79
2023/04/23 02:05:40;;;;;;;23.33;9.40;;;9.00;99.90;;;;;;5003931;28;20471;-79
2023/04/23 02:08:06;;;;;;;24.10;9.60;;;8.90;99.90;;;;;;5037056;28;20042;-79
2023/04/23 02:10:32;;;;;;;24.08;9.30;;;9.00;99.90;;;;;;5006706;28;20045;-79
2023/04/23 02:12:58;;;;;;;31.20;10.45;;;9.00;99.90;;;;;;5003983;28;20038;-79
2023/04/23 02:15:24;;;;;;;24.42;8.90;;;9.00;99.90;;;;;;5008567;28;20054;-79
2023/04/23 02:17:51;;;;;;;26.63;9.52;;;9.00;99.90;;;;;;5034696;28;20030;-79
2023/04/23 02:20:17;;;;;;;28.67;9.55;;;8.90;99.90;;;;;;5009362;28;20061;-79
2023/04/23 02:22:43;;;;;;;28.13;10.07;;;8.90;99.90;;;;;;4999624;28;20487;-79
2023/04/23 02:25:09;;;;;;;29.48;10.55;;;8.90;99.90;;;;;;5006754;28;20050;-79
2023/04/23 02:27:35;;;;;;;31.00;10.68;;;8.90;99.90;;;;;;5003303;28;20033;-79
2023/04/23 02:30:01;;;;;;;29.00;9.75;;;8.90;99.90;;;;;;5034076;28;20361;-79
2023/04/23 02:32:27;;;;;;;27.80;9.40;;;8.90;99.90;;;;;;5003221;28;20038;-79
2023/04/23 02:34:53;;;;;;;27.98;10.77;;;8.90;99.90;;;;;;5009111;28;20080;-79
2023/04/23 02:37:18;;;;;;;31.02;10.15;;;8.90;99.90;;;;;;5002970;28;20037;-79
2023/04/23 02:39:44;;;;;;;27.75;9.77;;;8.80;99.90;;;;;;5006807;28;20030;-79
2023/04/23 02:42:10;;;;;;;28.65;10.60;;;8.80;99.90;;;;;;5020892;28;20491;-79
2023/04/23 02:44:36;;;;;;;26.92;10.13;;;8.80;99.90;;;;;;5037353;28;20458;-78
2023/04/23 02:47:02;;;;;;;27.40;9.85;;;8.80;99.90;;;;;;4997917;28;20046;-79
2023/04/23 02:49:27;;;;;;;27.05;10.43;;;8.80;99.90;;;;;;5007192;28;20038;-79
2023/04/23 02:51:53;;;;;;;28.63;10.05;;;8.70;99.90;;;;;;5003838;28;20069;-79
2023/04/23 02:54:19;;;;;;;24.05;9.32;;;8.70;99.90;;;;;;5030043;28;20042;-79
2023/04/23 02:56:44;;;;;;;30.83;12.15;;;8.70;99.90;;;;;;5003164;28;20096;-79
2023/04/23 02:59:10;;;;;;;24.33;9.05;;;8.60;99.90;;;;;;5033862;28;20044;-79
2023/04/23 03:01:35;;;;;;;29.02;10.43;;;8.60;99.90;;;;;;5007485;28;20129;-79
2023/04/23 03:04:02;;;;;;;24.50;10.60;;;8.60;99.90;;;;;;4999463;28;20042;-79
2023/04/23 03:06:28;;;;;;;29.10;9.80;;;8.50;99.90;;;;;;4999588;28;20030;-79
2023/04/23 03:08:54;;;;;;;28.90;10.68;;;8.50;99.90;;;;;;5006021;28;20459;-79
2023/04/23 03:11:21;;;;;;;26.02;10.27;;;8.40;99.90;;;;;;5003723;28;20056;-78
2023/04/23 03:13:47;;;;;;;31.13;10.75;;;8.40;99.90;;;;;;5002737;28;20062;-78
2023/04/23 03:16:13;;;;;;;29.77;10.35;;;8.40;99.90;;;;;;5003362;28;20153;-79
2023/04/23 03:18:39;;;;;;;26.90;10.35;;;8.40;99.90;;;;;;5003966;28;20034;-79
2023/04/23 03:21:05;;;;;;;29.92;10.30;;;8.40;99.90;;;;;;5003033;28;20539;-79
2023/04/23 03:23:31;;;;;;;29.30;10.63;;;8.40;99.90;;;;;;5005919;28;20065;-79
2023/04/23 03:25:58;;;;;;;28.95;10.13;;;8.40;99.90;;;;;;5012336;28;20053;-79
2023/04/23 03:28:24;;;;;;;27.73;10.50;;;8.40;99.90;;;;;;5007868;28;20451;-79
2023/04/23 03:30:50;;;;;;;28.95;10.95;;;8.50;99.90;;;;;;5007590;28;20038;-79
2023/04/23 03:33:15;;;;;;;32.08;11.63;;;8.50;99.90;;;;;;5039789;28;20072;-79
2023/04/23 03:35:41;;;;;;;30.77;11.48;;;8.50;99.90;;;;;;5003311;28;20388;-79
2023/04/23 03:38:06;;;;;;;43.13;12.90;;;8.60;99.90;;;;;;5005266;28;20034;-79
2023/04/23 03:40:32;;;;;;;31.35;11.30;;;8.60;99.90;;;;;;5006787;28;20501;-78
2023/04/23 03:42:58;;;;;;;32.47;10.98;;;8.60;99.90;;;;;;5006120;28;20034;-78
2023/04/23 03:45:24;;;;;;;28.17;10.63;;;8.70;99.90;;;;;;5009983;28;20030;-79
2023/04/23 03:47:50;;;;;;;38.45;12.30;;;8.70;99.90;;;;;;5007657;28;20073;-78
2023/04/23 03:50:16;;;;;;;31.33;11.50;;;8.60;99.90;;;;;;5007545;28;20058;-78
2023/04/23 03:52:42;;;;;;;31.70;12.57;;;8.70;99.90;;;;;;5008068;28;20042;-79
2023/04/23 03:55:08;;;;;;;38.30;13.05;;;8.70;99.90;;;;;;5004170;28;20084;-78
2023/04/23 03:57:37;;;;;;;35.58;12.32;;;8.70;99.90;;;;;;5006162;28;20037;-79
2023/04/23 04:00:07;;;;;;;38.72;12.82;;;8.70;99.90;;;;;;5007191;28;20448;-79
2023/04/23 04:02:33;;;;;;;36.78;11.45;;;8.70;99.90;;;;;;5038765;28;20050;-79
2023/04/23 04:04:58;;;;;;;31.58;12.43;;;8.70;99.90;;;;;;5005312;28;20113;-78
2023/04/23 04:07:24;;;;;;;37.88;12.45;;;8.70;99.90;;;;;;5006094;28;20117;-79
2023/04/23 04:09:50;;;;;;;33.38;11.52;;;8.80;99.90;;;;;;5007057;28;20053;-79
2023/04/23 04:12:16;;;;;;;37.75;13.38;;;8.80;99.90;;;;;;5006545;28;20511;-78
2023/04/23 04:14:43;;;;;;;38.22;13.55;;;8.80;99.90;;;;;;5006712;28;20056;-79
2023/04/23 04:17:08;;;;;;;34.22;11.80;;;8.80;99.90;;;;;;5010576;28;20030;-78
2023/04/23 04:19:34;;;;;;;34.38;12.25;;;8.80;99.90;;;;;;5006830;28;20037;-78
2023/04/23 04:22:02;;;;;;;36.85;12.30;;;8.80;99.90;;;;;;5005622;28;20488;-79
2023/04/23 04:24:31;;;;;;;38.25;13.13;;;8.80;99.90;;;;;;5008494;28;20038;-79
2023/04/23 04:26:58;;;;;;;38.38;13.40;;;8.90;99.90;;;;;;5002394;28;20033;-78
2023/04/23 04:29:25;;;;;;;41.95;14.20;;;8.80;99.90;;;;;;5006742;28;20518;-78
2023/04/23 04:31:51;;;;;;;33.63;12.88;;;8.80;99.90;;;;;;5006552;28;20057;-78
2023/04/23 04:34:17;;;;;;;42.10;14.68;;;8.90;99.90;;;;;;5005576;28;20044;-78
2023/04/23 04:36:43;;;;;;;40.08;14.45;;;8.90;99.90;;;;;;5032201;28;20038;-78
2023/04/23 04:39:09;;;;;;;48.58;14.23;;;8.90;99.90;;;;;;5005867;28;20038;-78
2023/04/23 04:41:36;;;;;;;37.65;13.88;;;8.90;99.90;;;;;;5038477;28;20136;-78
2023/04/23 04:44:01;;;;;;;36.80;13.45;;;8.90;99.90;;;;;;5006992;28;20034;-78
2023/04/23 04:46:28;;;;;;;43.90;15.45;;;8.90;99.90;;;;;;5003270;28;20393;-78
2023/04/23 04:48:54;;;;;;;41.33;13.45;;;8.90;99.90;;;;;;4999951;28;20489;-77
2023/04/23 04:51:20;;;;;;;35.92;13.77;;;8.90;99.90;;;;;;5003610;28;20038;-78
2023/04/23 04:53:45;;;;;;;45.10;14.75;;;8.90;99.90;;;;;;5006104;28;20033;-78
2023/04/23 04:56:11;;;;;;;45.58;14.70;;;8.90;99.90;;;;;;5006159;28;20454;-78
2023/04/23 04:58:37;;;;;;;42.88;14.00;;;8.90;99.90;;;;;;5006130;28;20107;-78
2023/04/23 05:01:04;;;;;;;39.92;13.68;;;8.90;99.90;;;;;;5007554;28;20542;-78
2023/04/23 05:03:30;;;;;;;41.33;14.13;;;8.90;99.90;;;;;;5004978;28;20515;-78
2023/04/23 05:05:57;;;;;;;41.03;13.52;;;8.90;99.90;;;;;;5001959;28;20037;-78
2023/04/23 05:08:23;;;;;;;41.28;14.52;;;9.00;99.90;;;;;;5006975;28;20067;-78
2023/04/23 05:10:49;;;;;;;45.58;14.48;;;8.90;99.90;;;;;;5003616;28;20391;-77
2023/04/23 05:13:15;;;;;;;35.83;14.20;;;8.90;99.90;;;;;;5007474;28;20041;-78
2023/04/23 05:15:41;;;;;;;38.22;13.57;;;9.00;99.90;;;;;;5004734;28;20745;-78
2023/04/23 05:18:09;;;;;;;41.15;13.65;;;9.00;99.90;;;;;;5006268;28;20123;-77
2023/04/23 05:20:35;;;;;;;38.70;13.73;;;9.00;99.90;;;;;;5003326;28;20060;-78
2023/04/23 05:23:01;;;;;;;38.70;13.82;;;9.00;99.90;;;;;;5037475;28;20507;-78
2023/04/23 05:25:28;;;;;;;38.22;13.40;;;9.10;99.90;;;;;;4991178;28;20522;-78
2023/04/23 05:27:54;;;;;;;35.35;14.00;;;9.10;99.90;;;;;;5006652;28;20045;-78
2023/04/23 05:30:20;;;;;;;40.55;13.90;;;9.10;99.90;;;;;;5007141;28;20042;-78
2023/04/23 05:32:46;;;;;;;40.58;13.30;;;9.10;99.90;;;;;;5005580;28;20038;-78
2023/04/23 05:35:11;;;;;;;31.80;13.13;;;9.10;99.90;;;;;;5005084;28;20074;-78
2023/04/23 05:37:37;;;;;;;39.33;16.10;;;9.20;99.90;;;;;;5005443;28;20435;-78
2023/04/23 05:40:06;;;;;;;33.72;13.82;;;9.20;99.90;;;;;;5006891;28;20223;-78
2023/04/23 05:42:34;;;;;;;38.13;13.48;;;9.20;99.90;;;;;;5033981;28;20137;-78
2023/04/23 05:44:59;;;;;;;42.33;14.38;;;9.10;99.90;;;;;;5006268;28;20048;-78
2023/04/23 05:47:25;;;;;;;38.00;12.90;;;9.20;99.90;;;;;;5002871;28;20042;-78
2023/04/23 05:49:51;;;;;;;34.25;12.82;;;9.20;99.90;;;;;;4997723;28;20026;-78
2023/04/23 05:52:17;;;;;;;43.85;14.15;;;9.20;99.90;;;;;;5003727;28;20431;-78
2023/04/23 05:54:43;;;;;;;37.70;13.23;;;9.20;99.90;;;;;;4987406;28;20041;-79
2023/04/23 05:57:09;;;;;;;39.97;13.93;;;9.30;99.90;;;;;;5005485;28;20044;-79
2023/04/23 05:59:34;;;;;;;40.08;14.02;;;9.30;99.90;;;;;;5006113;28;20038;-79
2023/04/23 06:02:00;;;;;;;30.77;13.27;;;9.40;99.90;;;;;;5008423;28;20052;-79
2023/04/23 06:04:26;;;;;;;35.45;11.63;;;9.40;99.90;;;;;;5004675;28;20499;-79
2023/04/23 06:06:51;;;;;;;34.83;12.15;;;9.40;99.90;;;;;;5004113;28;20210;-79
2023/04/23 06:09:17;;;;;;;35.92;13.35;;;9.40;99.90;;;;;;5003003;28;20057;-79
2023/04/23 06:11:43;;;;;;;35.65;12.15;;;9.40;99.90;;;;;;4996904;28;20031;-79
2023/04/23 06:14:09;;;;;;;31.00;12.32;;;9.50;99.90;;;;;;4998053;28;20046;-79
2023/04/23 06:16:35;;;;;;;33.30;12.10;;;9.50;99.90;;;;;;5000392;28;20042;-79
2023/04/23 06:19:00;;;;;;;35.22;12.00;;;9.60;99.90;;;;;;5024665;28;20048;-79
2023/04/23 06:21:26;;;;;;;30.70;12.48;;;9.60;99.90;;;;;;4995076;28;20509;-79
2023/04/23 06:23:52;;;;;;;29.05;10.43;;;9.60;99.90;;;;;;4996894;28;20034;-79
2023/04/23 06:26:18;;;;;;;31.25;11.15;;;9.70;99.90;;;;;;5001708;28;20046;-78
2023/04/23 06:28:45;;;;;;;29.27;11.02;;;9.80;99.90;;;;;;4999489;28;20133;-78
2023/04/23 06:31:11;;;;;;;30.38;11.98;;;9.90;99.90;;;;;;5013774;28;20133;-79
2023/04/23 06:33:36;;;;;;;29.10;11.88;;;9.90;99.90;;;;;;4997123;28;20056;-78
2023/04/23 06:36:03;;;;;;;31.67;11.07;;;10.00;99.90;;;;;;4999825;28;20490;-78
2023/04/23 06:38:29;;;;;;;25.67;9.82;;;10.00;99.90;;;;;;5002760;28;20040;-79
2023/04/23 06:40:54;;;;;;;30.33;11.13;;;10.10;99.90;;;;;;4978778;28;20038;-80
2023/04/23 06:43:20;;;;;;;32.00;12.27;;;10.10;99.90;;;;;;4999951;28;20046;-80
2023/04/23 06:45:46;;;;;;;30.38;11.10;;;10.10;99.90;;;;;;5004485;28;20072;-79
2023/04/23 06:48:12;;;;;;;34.13;11.50;;;10.20;99.90;;;;;;4999690;28;20061;-80
2023/04/23 06:50:39;;;;;;;26.52;10.82;;;10.30;99.90;;;;;;5000005;28;20034;-80
2023/04/23 06:53:04;;;;;;;26.90;10.60;;;10.30;99.90;;;;;;5002185;28;20038;-80
2023/04/23 06:55:30;;;;;;;27.88;11.07;;;10.40;99.90;;;;;;5004979;28;20046;-80
2023/04/23 06:57:57;;;;;;;32.55;10.52;;;10.40;99.90;;;;;;5034953;28;20298;-79
2023/04/23 07:00:23;;;;;;;30.65;10.38;;;10.40;99.90;;;;;;5007899;28;20410;-79
2023/04/23 07:02:49;;;;;;;29.60;11.77;;;10.50;99.90;;;;;;5006482;28;20046;-79
2023/04/23 07:05:18;;;;;;;28.65;10.80;;;10.50;99.90;;;;;;5011303;28;20049;-80
2023/04/23 07:07:44;;;;;;;33.10;11.52;;;10.60;99.90;;;;;;5003120;28;20072;-80
2023/04/23 07:10:11;;;;;;;26.33;10.10;;;10.70;99.90;;;;;;4992861;28;20057;-79
2023/04/23 07:12:37;;;;;;;27.73;10.82;;;10.70;99.90;;;;;;5010490;28;20062;-79
2023/04/23 07:15:04;;;;;;;28.20;10.65;;;10.70;99.90;;;;;;5002097;28;20077;-78
2023/04/23 07:17:30;;;;;;;29.35;9.88;;;10.70;99.90;;;;;;5001724;28;20397;-79
2023/04/23 07:19:56;;;;;;;28.35;9.98;;;10.80;99.90;;;;;;5003655;28;20038;-79
2023/04/23 07:22:23;;;;;;;24.70;9.50;;;10.80;99.90;;;;;;5004806;28;20038;-79
2023/04/23 07:24:48;;;;;;;30.45;11.23;;;10.80;99.90;;;;;;5019788;28;20472;-79
2023/04/23 07:27:14;;;;;;;29.15;10.75;;;10.90;99.90;;;;;;5020959;28;20030;-79
2023/04/23 07:29:40;;;;;;;28.27;11.05;;;10.90;99.90;;;;;;5028073;28;20041;-78
2023/04/23 07:32:06;;;;;;;31.63;11.60;;;11.00;99.90;;;;;;4997078;28;20038;-79
2023/04/23 07:34:31;;;;;;;29.58;10.88;;;11.10;99.90;;;;;;5004017;28;20090;-78
2023/04/23 07:36:57;;;;;;;32.83;10.38;;;11.10;99.90;;;;;;5000292;28;20046;-78
2023/04/23 07:39:23;;;;;;;26.17;10.05;;;11.20;99.90;;;;;;5039652;28;20507;-79
2023/04/23 08:12:22;;;;;;;32.95;10.43;;;11.80;99.90;;;;;;5088686;27;20346;-75
2023/04/23 08:20:07;;;;;;;23.33;9.73;;;11.90;99.90;;;;;;5095190;27;20590;-72
2023/04/23 08:22:32;;;;;;;25.90;9.10;;;11.90;99.90;;;;;;5109589;27;20180;-77
2023/04/23 08:24:58;;;;;;;28.10;9.15;;;11.90;99.90;;;;;;5140612;27;20472;-76
2023/04/23 08:27:23;;;;;;;24.42;10.15;;;12.00;99.90;;;;;;5095486;28;20858;-75
2023/04/23 08:29:50;;;;;;;19.95;8.25;;;12.10;99.90;;;;;;5110154;27;20051;-75
2023/04/23 08:32:16;;;;;;;24.63;9.50;;;12.20;99.90;;;;;;5104275;27;20043;-76
2023/04/23 08:34:41;;;;;;;23.05;9.05;;;12.20;99.90;;;;;;5108799;27;20374;-75
2023/04/23 08:37:07;;;;;;;23.38;9.18;;;12.40;99.90;;;;;;5094592;27;20284;-76
2023/04/23 08:39:33;;;;;;;20.35;8.48;;;12.50;99.90;;;;;;5120996;27;20046;-76
2023/04/23 08:42:09;;;;;;;22.95;8.95;;;12.50;99.90;;;;;;5087150;27;20115;-75
2023/04/23 08:44:36;;;;;;;19.85;8.40;;;12.50;99.90;;;;;;5139194;27;20035;-76
2023/04/23 08:47:06;;;;;;;21.35;7.95;;;12.60;99.90;;;;;;5139007;27;20151;-76
2023/04/23 08:49:34;;;;;;;21.38;8.73;;;12.60;99.90;;;;;;5115254;27;20036;-77
2023/04/23 08:52:17;;;;;;;19.60;7.28;;;12.70;99.90;;;;;;5098351;27;20191;-80
2023/04/23 08:54:47;;;;;;;21.33;7.50;;;12.70;99.90;;;;;;5113872;27;20035;-77
2023/04/23 08:57:15;;;;;;;17.30;7.05;;;12.80;99.90;;;;;;5111942;27;20404;-77
2023/04/23 08:59:41;;;;;;;20.45;8.38;;;12.80;99.90;;;;;;5111842;27;20039;-77
2023/04/23 09:02:09;;;;;;;19.25;7.03;;;12.90;99.90;;;;;;5121029;27;20035;-77
2023/04/23 09:04:36;;;;;;;16.88;7.38;;;12.90;99.90;;;;;;5112782;27;20039;-77
2023/04/23 09:07:03;;;;;;;18.23;8.13;;;13.00;99.90;;;;;;5110222;27;20036;-77
2023/04/23 09:09:29;;;;;;;15.60;7.47;;;13.00;99.90;;;;;;5116578;27;20472;-77
2023/04/23 09:11:56;;;;;;;15.85;7.47;;;13.10;99.90;;;;;;5093048;28;20517;-77
2023/04/23 09:14:25;;;;;;;18.00;6.60;;;13.20;99.90;;;;;;5127321;27;20081;-77
2023/04/23 09:16:51;;;;;;;20.13;7.50;;;13.30;99.90;;;;;;5091631;28;20043;-77
2023/04/23 09:19:18;;;;;;;16.83;7.65;;;13.40;99.90;;;;;;5116000;28;20051;-77
2023/04/23 09:21:45;;;;;;;15.93;6.88;;;13.40;99.90;;;;;;5141476;27;20137;-77
2023/04/23 09:24:12;;;;;;;14.40;6.82;;;13.30;99.90;;;;;;5095572;28;20031;-77
2023/04/23 09:26:45;;;;;;;14.77;5.90;;;13.40;99.90;;;;;;5128921;27;20043;-79
2023/04/23 09:29:22;;;;;;;14.68;5.72;;;13.50;99.90;;;;;;5113889;28;20035;-79
2023/04/23 09:31:50;;;;;;;12.18;5.68;;;13.50;99.90;;;;;;5085989;28;20032;-79
2023/04/23 09:34:21;;;;;;;14.07;5.90;;;13.70;99.90;;;;;;5099373;28;20046;-78
2023/04/23 09:36:49;;;;;;;13.13;5.30;;;13.70;99.90;;;;;;5081254;28;20045;-79
2023/04/23 09:39:17;;;;;;;17.08;6.30;;;13.90;99.90;;;;;;5087710;28;20044;-79
2023/04/23 09:41:45;;;;;;;15.02;6.05;;;14.00;99.90;;;;;;5082612;28;20040;-79
2023/04/23 09:44:13;;;;;;;13.20;5.95;;;14.00;99.90;;;;;;5130464;27;20036;-79
2023/04/23 09:46:41;;;;;;;11.23;4.82;;;14.00;99.90;;;;;;5101392;28;20035;-78
2023/04/23 09:49:08;;;;;;;16.00;4.85;;;14.10;99.90;;;;;;5101603;28;21295;-79
2023/04/23 09:51:42;;;;;;;14.48;6.05;;;14.10;99.90;;;;;;5080201;28;20055;-79
2023/04/23 09:54:26;;;;;;;10.65;4.70;;;14.20;99.90;;;;;;5096391;27;20031;-79
2023/04/23 09:56:55;;;;;;;10.65;4.15;;;14.40;99.90;;;;;;5095065;27;20092;-79
2023/04/23 09:59:26;;;;;;;10.30;4.28;;;14.40;99.90;;;;;;5080263;28;20039;-79
2023/04/23 10:01:53;;;;;;;12.75;3.88;;;14.40;99.90;;;;;;5093762;28;20059;-80
2023/04/23 10:04:23;;;;;;;8.48;3.65;;;14.30;99.90;;;;;;5097735;27;20432;-79
2023/04/23 10:07:00;;;;;;;11.15;4.20;;;14.20;99.90;;;;;;5083516;28;20039;-80
2023/04/23 10:09:27;;;;;;;8.10;3.78;;;14.20;99.90;;;;;;5092776;27;20035;-78
2023/04/23 10:11:55;;;;;;;8.73;3.33;;;14.20;99.90;;;;;;5080765;27;20075;-77
2023/04/23 10:14:21;;;;;;;9.43;3.72;;;14.30;99.90;;;;;;5095873;27;20043;-79
2023/04/23 10:16:50;;;;;;;7.63;3.50;;;14.30;99.90;;;;;;5128928;27;20343;-79
2023/04/23 10:19:22;;;;;;;12.43;3.20;;;14.40;99.90;;;;;;5082551;28;20058;-80
2023/04/23 10:22:04;;;;;;;9.65;3.58;;;14.50;99.90;;;;;;5131046;27;20039;-80
2023/04/23 10:24:32;;;;;;;8.57;3.33;;;14.70;99.90;;;;;;5116442;27;20119;-81
2023/04/23 10:27:04;;;;;;;9.80;2.80;;;14.90;99.90;;;;;;5131267;27;20041;-80
2023/04/23 10:29:34;;;;;;;7.25;2.95;;;15.00;99.90;;;;;;5081943;28;20145;-80
2023/04/23 10:32:02;;;;;;;9.35;3.22;;;15.10;99.90;;;;;;5087249;28;20036;-80
2023/04/23 10:34:29;;;;;;;5.93;2.72;;;15.20;99.90;;;;;;5081931;28;20116;-80
2023/04/23 10:36:58;;;;;;;8.45;2.33;;;15.20;99.90;;;;;;5083525;28;20505;-80
2023/04/23 10:39:26;;;;;;;6.05;2.67;;;15.20;99.90;;;;;;5094903;27;20056;-80
2023/04/23 10:41:53;;;;;;;4.15;2.25;;;15.30;99.90;;;;;;5079491;28;20067;-80
2023/04/23 10:44:22;;;;;;;7.30;2.53;;;15.40;99.90;;;;;;5098257;27;20034;-80
2023/04/23 10:46:53;;;;;;;4.68;2.22;;;15.40;99.90;;;;;;5096225;28;20040;-80
2023/04/23 10:49:21;;;;;;;10.90;2.72;;;15.40;99.90;;;;;;5116260;27;20060;-80
2023/04/23 10:51:47;;;;;;;5.55;2.30;;;15.30;99.90;;;;;;5081549;28;20481;-80
2023/04/23 10:54:14;;;;;;;6.10;2.08;;;15.30;99.90;;;;;;5099880;28;20496;-80
2023/04/23 10:56:41;;;;;;;8.50;2.40;;;15.30;99.90;;;;;;5085582;28;20035;-80
2023/04/23 10:59:16;;;;;;;4.07;1.70;;;15.30;99.90;;;;;;5080798;28;20280;-80
2023/04/23 11:01:44;;;;;;;4.22;1.83;;;15.40;99.90;;;;;;5093880;27;20047;-80
2023/04/23 11:04:20;;;;;;;5.28;1.85;;;15.30;99.90;;;;;;5094820;27;20059;-80
2023/04/23 11:06:49;;;;;;;3.50;1.88;;;15.30;99.90;;;;;;5094912;27;20423;-79
2023/04/23 11:09:30;;;;;;;5.07;2.00;;;15.30;99.90;;;;;;5074145;28;20050;-80
2023/04/23 11:11:57;;;;;;;3.70;2.00;;;15.20;99.90;;;;;;5079455;28;20032;-80
2023/04/23 11:14:42;;;;;;;4.35;1.60;;;15.20;99.90;;;;;;5078002;28;20473;-81
2023/04/23 11:17:11;;;;;;;3.97;1.40;;;15.30;99.90;;;;;;5093815;27;20054;-80
2023/04/23 11:19:38;;;;;;;6.32;1.63;;;15.30;99.90;;;;;;5073707;27;20051;-80
2023/04/23 11:22:07;;;;;;;5.97;1.50;;;15.40;99.90;;;;;;5071020;28;20031;-81
2023/04/23 11:24:35;;;;;;;2.50;1.20;;;15.40;99.90;;;;;;5090910;27;20050;-81
2023/04/23 11:27:05;;;;;;;5.53;1.10;;;15.50;99.90;;;;;;5119454;27;20084;-81
2023/04/23 11:29:31;;;;;;;3.10;1.10;;;15.60;99.90;;;;;;5110420;27;20507;-80
2023/04/23 11:31:57;;;;;;;5.32;1.10;;;15.60;99.90;;;;;;5109657;27;20040;-80
2023/04/23 11:34:24;;;;;;;6.10;1.40;;;15.70;99.90;;;;;;5095296;27;20089;-80
2023/04/23 11:36:52;;;;;;;5.60;1.10;;;15.70;99.90;;;;;;5090035;27;20063;-80
2023/04/23 11:39:18;;;;;;;5.40;1.05;;;15.70;99.90;;;;;;5095999;27;20054;-80
2023/04/23 11:41:45;;;;;;;0.90;0.60;;;15.80;99.90;;;;;;5074890;27;20047;-80
2023/04/23 11:44:11;;;;;;;1.85;0.80;;;15.80;99.90;;;;;;5094318;27;20073;-80
2023/04/23 11:46:37;;;;;;;4.47;1.08;;;15.80;99.90;;;;;;5076812;28;20043;-80
2023/04/23 11:49:05;;;;;;;1.52;0.70;;;15.90;99.90;;;;;;5093479;27;20074;-80
2023/04/23 11:51:31;;;;;;;4.28;1.17;;;16.00;99.90;;;;;;5092565;27;20051;-80
2023/04/23 11:54:02;;;;;;;3.72;1.35;;;16.20;99.90;;;;;;5095429;28;21012;-81
2023/04/23 11:56:31;;;;;;;4.55;1.08;;;16.20;99.90;;;;;;5090591;27;20152;-83
2023/04/23 11:59:04;;;;;;;2.72;1.02;;;16.30;99.90;;;;;;5069574;28;20130;-78
2023/04/23 12:01:40;;;;;;;2.30;0.93;;;16.30;99.90;;;;;;5094597;28;20035;-78
2023/04/23 12:04:13;;;;;;;3.47;0.88;;;16.30;99.90;;;;;;5089750;27;20032;-78
2023/04/23 12:06:44;;;;;;;4.50;0.75;;;16.20;99.90;;;;;;5107493;27;20089;-78
2023/04/23 12:09:11;;;;;;;2.63;1.00;;;16.10;99.90;;;;;;5077254;28;20322;-78
2023/04/23 12:11:37;;;;;;;1.38;0.70;;;16.10;99.90;;;;;;5088593;28;20063;-78
2023/04/23 12:14:03;;;;;;;2.40;1.05;;;16.00;99.90;;;;;;5092564;28;20522;-77
2023/04/23 12:16:34;;;;;;;3.17;0.88;;;15.90;99.90;;;;;;5078152;28;20032;-81
2023/04/23 12:19:00;;;;;;;1.48;0.80;;;15.90;99.90;;;;;;5078139;28;20062;-78
2023/04/23 12:21:28;;;;;;;3.38;1.30;;;16.00;99.90;;;;;;5091768;28;20520;-78
2023/04/23 12:23:55;;;;;;;3.42;0.75;;;16.00;99.90;;;;;;5095546;28;20048;-78
2023/04/23 12:26:23;;;;;;;2.13;0.88;;;16.00;99.90;;;;;;5088340;28;20074;-78
2023/04/23 12:28:58;;;;;;;2.28;0.82;;;16.10;99.90;;;;;;5090071;28;20113;-78
2023/04/23 12:31:28;;;;;;;2.80;1.08;;;16.10;99.90;;;;;;5110597;28;20096;-78
2023/04/23 12:34:01;;;;;;;3.35;1.25;;;16.20;99.90;;;;;;5091108;28;20398;-78
2023/04/23 12:36:29;;;;;;;2.67;0.85;;;16.20;99.90;;;;;;5100044;28;20469;-78
2023/04/23 12:39:15;;;;;;;4.13;0.80;;;16.20;99.90;;;;;;5093714;28;20554;-78
2023/04/23 12:41:40;;;;;;;7.28;1.55;;;16.20;99.90;;;;;;5094209;28;20077;-78
2023/04/23 12:44:06;;;;;;;5.03;1.35;;;16.30;99.90;;;;;;5120738;27;20427;-78
2023/04/23 12:46:32;;;;;;;2.33;0.85;;;16.20;99.90;;;;;;5122872;27;20043;-78
2023/04/23 12:48:57;;;;;;;1.52;0.75;;;16.20;99.90;;;;;;5075470;28;20060;-78
2023/04/23 12:51:23;;;;;;;1.83;0.57;;;16.30;99.90;;;;;;5074316;28;20488;-78
2023/04/23 12:53:49;;;;;;;4.18;0.88;;;16.20;99.90;;;;;;5076790;28;20032;-78
2023/04/23 12:56:14;;;;;;;3.97;1.05;;;16.20;99.90;;;;;;5089145;28;20457;-79
2023/04/23 12:58:40;;;;;;;3.00;0.90;;;16.20;99.90;;;;;;5093156;28;20053;-78
2023/04/23 13:01:05;;;;;;;1.17;0.60;;;16.30;99.90;;;;;;5119679;27;20035;-78
2023/04/23 13:03:31;;;;;;;4.35;0.90;;;16.30;99.90;;;;;;5122684;27;20029;-78
2023/04/23 13:05:56;;;;;;;3.33;0.80;;;16.20;99.90;;;;;;5095040;27;20038;-78
2023/04/23 13:08:22;;;;;;;1.33;0.55;;;16.30;99.90;;;;;;5098622;27;20032;-78
2023/04/23 13:10:49;;;;;;;3.30;0.77;;;16.20;99.90;;;;;;5098298;27;20330;-78
2023/04/23 13:13:14;;;;;;;1.48;0.50;;;16.20;99.90;;;;;;5094516;27;20039;-78
2023/04/23 13:15:41;;;;;;;2.33;0.75;;;16.20;99.90;;;;;;5098934;27;20032;-78